Time;durP1;ratioP1;P1;durP2;ratioP2;P2;SDS_P1;SDS_P2;PMS_P1;PMS_P2;Temp;Humidity;BMP_temperature;BMP_pressure;BME280_temperature;BME280_humidity;BME280_pressure;Samples;Min_cycle;Max_cycle;Signal;HPM_P1;HPM_P2
2023/11/30 00:00:52;;;;;;;44.67;19.67;;;;;;;-2.07;80.28;100310.62;123696;1099;104245;-80
2023/11/30 00:03:40;;;;;;;49.60;21.50;;;;;;;-2.06;80.87;100318.46;123734;1099;104267;-80
2023/11/30 00:06:13;;;;;;;48.67;22.03;;;;;;;-2.06;80.03;100315.89;123842;1099;104271;-81
2023/11/30 00:08:45;;;;;;;47.53;21.23;;;;;;;-2.06;79.81;100317.57;123906;1099;104270;-80
2023/11/30 00:11:16;;;;;;;47.50;20.80;;;;;;;-2.06;80.51;100317.57;123552;1099;104865;-80
2023/11/30 00:13:48;;;;;;;48.13;22.03;;;;;;;-2.06;81.00;100322.72;123398;1099;104300;-80
2023/11/30 00:16:19;;;;;;;53.07;24.03;;;;;;;-2.09;80.42;100325.03;123359;1099;104344;-80
2023/11/30 00:18:50;;;;;;;49.07;23.03;;;;;;;-2.10;80.86;100323.22;123262;1099;104347;-79
2023/11/30 00:21:22;;;;;;;48.67;22.33;;;;;;;-2.13;80.36;100329.03;123229;1102;104415;-80
2023/11/30 00:23:54;;;;;;;58.17;25.50;;;;;;;-2.13;80.98;100333.28;123242;1099;104259;-79
2023/11/30 00:26:25;;;;;;;54.67;23.47;;;;;;;-2.14;80.65;100334.05;123417;1099;104348;-80
2023/11/30 00:28:58;;;;;;;;;;;;;;;-2.17;80.22;100334.67;123261;1099;104300;-81
2023/11/30 00:31:31;;;;;;;42.30;18.50;;;;;;;-2.21;80.37;100341.25;123476;1099;104249;-81
2023/11/30 00:34:04;;;;;;;48.93;20.00;;;;;;;-2.23;80.80;100341.87;123408;1099;105751;-81
2023/11/30 00:36:35;;;;;;;47.77;19.23;;;;;;;-2.25;80.59;100341.75;123605;1099;104376;-80
2023/11/30 00:39:08;;;;;;;49.23;20.47;;;;;;;-2.26;80.51;100341.62;123383;1099;104264;-80
2023/11/30 00:41:39;;;;;;;46.37;19.13;;;;;;;-2.28;80.74;100344.06;123309;1099;104239;-80
2023/11/30 00:44:11;;;;;;;49.70;19.70;;;;;;;-2.29;80.24;100349.99;123509;1102;104440;-80
2023/11/30 00:46:42;;;;;;;44.37;19.80;;;;;;;-2.30;80.29;100348.19;123786;1098;104428;-78
2023/11/30 00:49:14;;;;;;;42.00;19.63;;;;;;;-2.30;80.87;100353.33;123375;1099;104450;-79
2023/11/30 00:51:46;;;;;;;47.97;19.80;;;;;;;-2.30;80.54;100363.61;123652;1099;104274;-80
2023/11/30 00:54:17;;;;;;;49.10;19.73;;;;;;;-2.32;80.48;100360.02;123578;1099;104355;-79
2023/11/30 00:56:49;;;;;;;43.37;19.17;;;;;;;-2.36;80.65;100363.97;123431;1099;104238;-79
2023/11/30 00:59:20;;;;;;;44.57;18.77;;;;;;;-2.36;81.17;100363.97;123459;1099;104280;-79
2023/11/30 01:01:52;;;;;;;47.47;20.63;;;;;;;-2.36;80.94;100366.55;123506;1099;104373;-80
2023/11/30 01:04:24;;;;;;;46.30;20.10;;;;;;;-2.36;81.22;100363.97;123465;1099;104699;-80
2023/11/30 01:06:55;;;;;;;48.77;19.70;;;;;;;-2.35;81.39;100360.64;123362;1099;104213;-79
2023/11/30 01:09:27;;;;;;;50.67;21.73;;;;;;;-2.34;81.31;100364.11;123323;1099;104226;-79
2023/11/30 01:11:58;;;;;;;43.87;19.23;;;;;;;-2.37;80.75;100372.48;123352;1099;104488;-78
2023/11/30 01:14:30;;;;;;;50.05;21.10;;;;;;;-2.41;80.40;100364.38;123435;1099;104283;-79
2023/11/30 01:17:02;;;;;;;55.20;21.95;;;;;;;-2.42;80.61;100373.73;123563;1099;104489;-79
2023/11/30 01:19:33;;;;;;;53.40;25.07;;;;;;;-2.43;80.20;100371.03;123518;1099;104345;-79
2023/11/30 01:22:07;;;;;;;52.53;23.80;;;;;;;-2.44;80.66;100371.83;123615;1099;104226;-79
2023/11/30 01:24:38;;;;;;;41.53;19.55;;;;;;;-2.46;81.60;100375.91;123471;1099;105717;-78
2023/11/30 01:27:10;;;;;;;49.23;23.43;;;;;;;-2.47;81.30;100386.98;123188;1099;104297;-79
2023/11/30 01:29:42;;;;;;;56.40;25.60;;;;;;;-2.48;80.97;100382.59;123181;1099;104219;-79
2023/11/30 01:32:13;;;;;;;58.83;28.10;;;;;;;-2.50;80.65;100389.28;123130;1099;104354;-78
2023/11/30 01:34:47;;;;;;;52.27;23.47;;;;;;;-2.52;80.84;100386.59;123220;1099;104268;-79
2023/11/30 01:37:19;;;;;;;49.83;23.93;;;;;;;-2.54;81.21;100390.67;123306;1099;104704;-79
2023/11/30 01:39:51;;;;;;;50.30;22.47;;;;;;;-2.55;80.36;100391.46;123332;1099;104332;-79
2023/11/30 01:42:23;;;;;;;51.07;22.00;;;;;;;-2.54;80.68;100395.81;123259;1102;104309;-78
2023/11/30 01:44:55;;;;;;;51.43;21.90;;;;;;;-2.55;81.27;100392.34;123274;1099;104209;-79
2023/11/30 01:47:26;;;;;;;47.80;20.80;;;;;;;-2.55;81.08;100396.59;123284;1099;104322;-79
2023/11/30 01:49:58;;;;;;;49.80;22.03;;;;;;;-2.56;81.34;100403.38;123326;1099;104364;-78
2023/11/30 01:52:31;;;;;;;49.47;21.13;;;;;;;-2.58;80.98;100406.61;123134;1099;104353;-78
2023/11/30 01:55:03;;;;;;;44.33;19.30;;;;;;;-2.58;80.72;100409.18;123328;1102;104252;-78
2023/11/30 01:57:35;;;;;;;45.30;21.07;;;;;;;-2.61;80.29;100408.92;123143;1099;104322;-77
2023/11/30 02:00:10;;;;;;;52.55;22.80;;;;;;;-2.64;80.86;100411.22;123219;1099;104255;-78
2023/11/30 02:02:46;;;;;;;52.27;21.80;;;;;;;-2.66;81.21;100415.34;123150;1099;104428;-78
2023/11/30 02:05:18;;;;;;;54.00;23.25;;;;;;;-2.66;81.00;100407.63;123223;1099;104267;-78
2023/11/30 02:07:50;;;;;;;52.37;22.27;;;;;;;-2.65;81.32;100407.77;123288;1099;104287;-79
2023/11/30 02:10:24;;;;;;;49.53;21.27;;;;;;;-2.66;81.11;100418.80;123258;1099;104316;-78
2023/11/30 02:12:56;;;;;;;47.40;21.65;;;;;;;-2.66;81.50;100413.66;123315;1099;104811;-78
2023/11/30 02:15:27;;;;;;;50.07;22.63;;;;;;;-2.67;81.06;100422.12;123249;1099;104223;-77
2023/11/30 02:17:59;;;;;;;52.77;22.10;;;;;;;-2.66;81.68;100425.61;123273;1099;104248;-77
2023/11/30 02:20:31;;;;;;;50.50;22.10;;;;;;;-2.69;80.97;100433.94;123197;1099;104255;-77
2023/11/30 02:23:02;;;;;;;52.03;22.10;;;;;;;-2.73;81.02;100425.08;123125;1102;104406;-79
2023/11/30 02:25:33;;;;;;;51.93;21.93;;;;;;;-2.76;81.42;100427.37;123241;1100;104306;-79
2023/11/30 02:28:05;;;;;;;51.30;22.63;;;;;;;-2.78;81.06;100428.89;123263;1099;104725;-79
2023/11/30 02:30:39;;;;;;;54.50;23.33;;;;;;;-2.77;81.26;100434.95;123236;1099;104303;-79
2023/11/30 02:33:10;;;;;;;56.58;24.20;;;;;;;-2.79;81.37;100451.88;123666;1099;104281;-79
2023/11/30 02:35:41;;;;;;;52.30;23.47;;;;;;;-2.85;80.80;100451.33;123505;1099;104271;-79
2023/11/30 02:38:13;;;;;;;57.43;24.17;;;;;;;-2.85;80.80;100459.03;123345;1099;104270;-79
2023/11/30 02:40:45;;;;;;;51.83;21.77;;;;;;;-2.87;80.37;100456.33;123305;1099;104360;-78
2023/11/30 02:43:16;;;;;;;52.87;23.23;;;;;;;-2.90;81.04;100459.55;123202;1099;104214;-78
2023/11/30 02:45:48;;;;;;;54.10;21.37;;;;;;;-2.90;80.87;100454.41;123243;1097;104216;-79
2023/11/30 02:48:19;;;;;;;52.83;22.03;;;;;;;-2.89;81.34;100461.33;123285;1099;104318;-78
2023/11/30 02:50:51;;;;;;;49.57;22.07;;;;;;;-2.89;81.70;100469.03;123293;1099;104223;-78
2023/11/30 02:53:22;;;;;;;50.40;21.60;;;;;;;-2.89;81.28;100461.33;123207;1099;104309;-77
2023/11/30 02:55:54;;;;;;;52.93;21.47;;;;;;;-2.88;80.79;100467.39;123197;1099;105668;-77
2023/11/30 02:58:25;;;;;;;55.57;22.47;;;;;;;-2.90;80.78;100464.69;123198;1099;104358;-78
2023/11/30 03:00:57;;;;;;;54.60;24.40;;;;;;;-2.90;81.28;100471.47;123296;1099;104393;-78
2023/11/30 03:03:28;;;;;;;52.35;23.05;;;;;;;-2.93;81.00;100474.69;123203;1102;104277;-78
2023/11/30 03:06:00;;;;;;;51.63;24.43;;;;;;;-2.93;81.14;100484.03;123188;1099;104326;-78
2023/11/30 03:08:32;;;;;;;51.57;24.33;;;;;;;-2.93;81.53;100474.69;123164;1099;107023;-77
2023/11/30 03:11:05;;;;;;;52.55;22.80;;;;;;;-2.92;81.52;100478.14;123181;1099;104288;-77
2023/11/30 03:13:36;;;;;;;58.87;24.53;;;;;;;-2.95;81.71;100486.47;123216;1099;104353;-77
2023/11/30 03:16:09;;;;;;;53.80;23.30;;;;;;;-2.98;81.37;100482.73;123138;1099;104328;-77
2023/11/30 03:18:42;;;;;;;56.35;24.43;;;;;;;-2.98;81.19;100486.19;123204;1099;104344;-77
2023/11/30 03:21:21;;;;;;;52.97;23.53;;;;;;;-2.99;81.43;100483.48;123207;1099;104318;-77
2023/11/30 03:23:54;;;;;;;52.70;23.75;;;;;;;-3.00;81.76;100477.47;123318;1102;104677;-78
2023/11/30 03:26:26;;;;;;;50.65;22.95;;;;;;;-2.98;81.86;100475.03;123154;1099;104342;-78
2023/11/30 03:28:58;;;;;;;51.33;23.00;;;;;;;-3.00;81.27;100487.73;123239;1102;104706;-78
2023/11/30 03:31:30;;;;;;;49.30;24.53;;;;;;;-3.01;81.11;100472.19;123244;1102;104465;-77
2023/11/30 03:34:02;;;;;;;56.70;25.87;;;;;;;-3.03;80.85;100481.44;123109;1102;104246;-78
2023/11/30 03:36:33;;;;;;;52.07;25.30;;;;;;;-3.05;82.03;100481.30;123055;1102;104293;-77
2023/11/30 03:39:05;;;;;;;60.10;27.97;;;;;;;-3.09;80.92;100482.67;122982;1102;110206;-77
2023/11/30 03:41:37;;;;;;;56.30;26.70;;;;;;;-3.08;81.86;100494.75;123144;1099;104345;-77
2023/11/30 03:44:08;;;;;;;52.30;26.70;;;;;;;-3.08;81.52;100494.75;123292;1101;104336;-78
2023/11/30 03:46:40;;;;;;;57.23;26.73;;;;;;;-3.08;81.66;100493.86;123089;1102;104278;-77
2023/11/30 03:49:11;;;;;;;59.47;29.17;;;;;;;-3.10;81.90;100503.99;123180;1099;104226;-78
2023/11/30 03:51:43;;;;;;;57.57;27.77;;;;;;;-3.13;81.35;100506.28;123260;1099;104277;-78
2023/11/30 03:54:14;;;;;;;54.83;27.37;;;;;;;-3.12;81.81;100507.17;123194;1099;104277;-78
2023/11/30 03:56:48;;;;;;;62.45;29.20;;;;;;;-3.13;82.00;100505.36;123274;1102;104358;-77
2023/11/30 03:59:20;;;;;;;64.67;30.97;;;;;;;-3.14;82.14;100506.14;123247;1102;104303;-77
2023/11/30 04:01:51;;;;;;;52.80;26.93;;;;;;;-3.12;81.77;100509.73;123261;1099;104198;-77
2023/11/30 04:04:23;;;;;;;59.37;28.93;;;;;;;-3.12;81.40;100502.04;123185;1099;104322;-77
2023/11/30 04:06:54;;;;;;;60.65;29.90;;;;;;;-3.17;82.22;100491.36;123229;1102;104322;-78
2023/11/30 04:09:28;;;;;;;60.57;30.33;;;;;;;-3.18;81.15;100499.84;123232;1102;104370;-78
2023/11/30 04:12:01;;;;;;;58.30;29.23;;;;;;;-3.20;81.64;100498.78;123270;1102;104297;-78
2023/11/30 04:14:32;;;;;;;57.70;30.43;;;;;;;-3.20;81.98;100506.48;123291;1102;104336;-78
2023/11/30 04:17:04;;;;;;;61.17;30.93;;;;;;;-3.21;81.68;100501.20;123153;1099;104264;-77
2023/11/30 04:19:35;;;;;;;62.17;30.47;;;;;;;-3.23;81.17;100501.07;123111;1099;104259;-77
2023/11/30 04:22:07;;;;;;;58.63;28.67;;;;;;;-3.22;81.72;100507.13;123208;1099;104360;-77
2023/11/30 04:24:39;;;;;;;56.67;28.70;;;;;;;-3.24;81.93;100519.83;123150;1099;104328;-77
2023/11/30 04:27:10;;;;;;;61.43;29.13;;;;;;;-3.26;81.96;100519.68;123113;1099;104300;-77
2023/11/30 04:29:42;;;;;;;58.33;28.30;;;;;;;-3.27;81.26;100528.13;123159;1099;104341;-77
2023/11/30 04:32:14;;;;;;;51.83;25.43;;;;;;;-3.29;82.04;100532.23;123108;1099;104325;-77
2023/11/30 04:34:45;;;;;;;58.93;26.20;;;;;;;-3.33;81.67;100537.84;123176;1099;104358;-77
2023/11/30 04:37:19;;;;;;;57.05;28.10;;;;;;;-3.36;82.34;100529.86;123340;1099;104358;-77
2023/11/30 04:39:52;;;;;;;53.70;25.33;;;;;;;-3.39;81.98;100529.58;123290;1099;105677;-78
2023/11/30 04:42:24;;;;;;;53.85;25.52;;;;;;;-3.38;81.17;100533.04;123795;1099;104326;-76
2023/11/30 04:44:56;;;;;;;57.20;25.47;;;;;;;-3.39;81.74;100532.15;123547;1099;104309;-77
2023/11/30 04:47:27;;;;;;;55.50;26.90;;;;;;;-3.39;81.35;100533.82;123513;1099;104265;-78
2023/11/30 04:49:59;;;;;;;57.60;27.25;;;;;;;-3.39;81.91;100541.52;123461;1099;104277;-77
2023/11/30 04:52:30;;;;;;;58.83;27.47;;;;;;;-3.41;81.71;100538.81;123264;1099;104265;-77
2023/11/30 04:55:02;;;;;;;51.37;25.77;;;;;;;-3.40;81.45;100537.14;123193;1099;104275;-77
2023/11/30 04:57:33;;;;;;;54.90;24.53;;;;;;;-3.41;81.76;100535.33;123403;1099;104283;-77
2023/11/30 05:00:08;;;;;;;54.90;25.40;;;;;;;-3.46;81.29;100538.39;123596;1098;104415;-77
2023/11/30 05:02:49;;;;;;;55.47;25.17;;;;;;;-3.49;81.69;100542.31;123815;1099;104245;-78
2023/11/30 05:05:21;;;;;;;54.90;25.37;;;;;;;-3.48;82.12;100547.59;123591;1099;104259;-77
2023/11/30 05:07:53;;;;;;;57.97;25.80;;;;;;;-3.47;82.14;100543.38;123591;1099;104216;-77
2023/11/30 05:10:25;;;;;;;52.93;25.00;;;;;;;-3.48;82.23;100542.45;123353;1099;104239;-77
2023/11/30 05:12:56;;;;;;;58.50;25.63;;;;;;;-3.45;82.36;100544.41;123333;1099;104291;-78
2023/11/30 05:15:28;;;;;;;55.03;24.60;;;;;;;-3.41;82.67;100555.84;123467;1099;104315;-77
2023/11/30 05:17:59;;;;;;;55.17;25.20;;;;;;;-3.44;82.06;100549.69;123512;1099;104699;-78
2023/11/30 05:20:31;;;;;;;61.03;26.57;;;;;;;-3.41;82.40;100540.45;123580;1099;104222;-74
2023/11/30 05:23:02;;;;;;;58.10;26.67;;;;;;;-3.39;82.16;100547.55;123717;1099;104296;-76
2023/11/30 05:25:34;;;;;;;54.23;25.43;;;;;;;-3.35;82.76;100554.77;123812;1099;104408;-76
2023/11/30 05:28:06;;;;;;;54.53;25.50;;;;;;;-3.34;82.22;100550.53;123426;1099;104762;-76
2023/11/30 05:30:38;;;;;;;50.80;24.77;;;;;;;-3.31;82.94;100555.94;123486;1099;104326;-75
2023/11/30 05:33:09;;;;;;;56.13;25.40;;;;;;;-3.31;82.21;100561.97;123495;1099;104354;-74
2023/11/30 05:35:41;;;;;;;55.70;25.80;;;;;;;-3.27;81.94;100563.17;123601;1099;104239;-76
2023/11/30 05:38:12;;;;;;;56.63;26.23;;;;;;;-3.28;82.46;100563.92;123541;1099;104521;-75
2023/11/30 05:40:44;;;;;;;54.20;25.93;;;;;;;-3.29;81.61;100568.16;123899;1099;104728;-75
2023/11/30 05:43:15;;;;;;;58.33;27.20;;;;;;;-3.27;81.70;100568.30;123555;1099;104176;-75
2023/11/30 05:45:47;;;;;;;61.80;26.73;;;;;;;-3.23;82.25;100572.05;123687;1099;104242;-75
2023/11/30 05:48:18;;;;;;;51.27;23.83;;;;;;;-3.21;82.71;100571.44;123445;1099;104191;-75
2023/11/30 05:50:50;;;;;;;51.60;24.60;;;;;;;-3.18;82.43;100578.48;123678;1099;104358;-75
2023/11/30 05:53:22;;;;;;;54.90;26.40;;;;;;;-3.16;82.01;100585.58;123487;1099;104278;-76
2023/11/30 05:55:53;;;;;;;53.70;25.67;;;;;;;-3.16;82.30;100592.39;123832;1099;104235;-76
2023/11/30 05:58:25;;;;;;;55.07;25.43;;;;;;;-3.13;82.53;100596.13;123963;1099;104398;-76
2023/11/30 06:00:57;;;;;;;57.97;27.50;;;;;;;-3.06;82.99;100597.58;124483;1099;104236;-76
2023/11/30 06:03:29;;;;;;;55.40;26.47;;;;;;;-3.00;82.09;100597.24;124022;1099;104245;-76
2023/11/30 06:06:02;;;;;;;80.03;42.20;;;;;;;-2.98;83.20;100596.59;124032;1099;104175;-78
2023/11/30 06:08:35;;;;;;;68.07;36.03;;;;;;;-2.93;82.75;100605.64;124153;1099;104354;-76
2023/11/30 06:11:07;;;;;;;61.47;30.97;;;;;;;-2.86;82.63;100608.77;124036;1099;104217;-77
2023/11/30 06:13:39;;;;;;;60.83;29.07;;;;;;;-2.81;82.49;100612.64;124025;1099;104214;-75
2023/11/30 06:16:12;;;;;;;60.17;26.77;;;;;;;-2.78;83.11;100612.92;123928;1099;104338;-77
2023/11/30 06:18:43;;;;;;;50.23;24.37;;;;;;;-2.77;82.16;100617.31;124057;1099;104249;-76
2023/11/30 06:21:15;;;;;;;51.70;25.27;;;;;;;-2.74;82.89;100630.42;123853;1099;104192;-76
2023/11/30 06:23:47;;;;;;;52.47;25.90;;;;;;;-2.73;82.69;100616.80;123891;1099;104296;-79
2023/11/30 06:26:19;;;;;;;55.93;26.13;;;;;;;-2.69;82.42;100623.14;124253;1099;102092;-77
2023/11/30 06:28:51;;;;;;;56.43;25.33;;;;;;;-2.63;82.50;100624.58;124190;1098;104239;-75
2023/11/30 06:31:22;;;;;;;54.13;25.53;;;;;;;-2.62;83.31;100623.80;124258;1099;104236;-75
2023/11/30 06:33:54;;;;;;;53.43;24.87;;;;;;;-2.62;83.50;100626.36;124467;1099;104264;-77
2023/11/30 06:36:26;;;;;;;55.07;25.93;;;;;;;-2.58;82.57;100632.70;124740;1098;104284;-76
2023/11/30 06:38:57;;;;;;;52.63;23.63;;;;;;;-2.54;83.61;100637.33;124854;1099;102262;-78
2023/11/30 06:41:29;;;;;;;49.50;23.43;;;;;;;-2.47;82.58;100636.23;124306;1099;102002;-78
2023/11/30 06:44:07;;;;;;;52.50;24.05;;;;;;;-2.47;82.61;100631.09;124854;1099;104158;-79
2023/11/30 06:46:42;;;;;;;53.00;24.07;;;;;;;-2.38;83.47;100630.24;124627;1099;104172;-79
2023/11/30 06:49:14;;;;;;;49.57;22.87;;;;;;;-2.23;83.00;100643.56;124515;1099;104361;-78
2023/11/30 06:51:46;;;;;;;50.27;22.93;;;;;;;-2.11;82.69;100643.73;124093;1099;104287;-77
2023/11/30 06:54:21;;;;;;;56.90;28.30;;;;;;;-2.02;82.59;100638.50;124498;1099;104358;-75
2023/11/30 06:56:57;;;;;;;57.53;25.77;;;;;;;-1.95;83.54;100635.68;124143;1099;104249;-75
2023/11/30 06:59:28;;;;;;;59.30;27.80;;;;;;;-1.91;83.14;100642.02;124129;1099;104242;-77
2023/11/30 07:02:00;;;;;;;57.43;26.70;;;;;;;-1.84;82.70;100645.26;124299;1099;104265;-78
2023/11/30 07:04:36;;;;;;;62.13;28.83;;;;;;;-1.73;82.51;100658.13;124504;1099;103830;-77
2023/11/30 07:07:08;;;;;;;61.70;29.77;;;;;;;-1.66;83.17;100645.05;124660;1099;103062;-77
2023/11/30 07:09:39;;;;;;;64.80;30.40;;;;;;;-1.58;83.23;100650.86;124495;1099;102305;-76
2023/11/30 07:12:12;;;;;;;;;;;;;;;-1.56;82.82;100647.63;124495;1099;104153;-77
2023/11/30 07:14:44;;;;;;;73.17;32.20;;;;;;;-1.55;82.47;100643.40;124707;1099;104236;-79
2023/11/30 07:17:28;;;;;;;73.23;34.00;;;;;;;-1.47;82.70;100647.52;124735;1099;102357;-78
2023/11/30 07:19:59;;;;;;;86.95;41.10;;;;;;;-1.35;82.99;100652.83;124468;1099;104383;-80
2023/11/30 07:22:31;;;;;;;91.10;41.17;;;;;;;-1.22;82.94;100660.81;124451;1099;104389;-77
2023/11/30 07:25:06;;;;;;;84.57;40.83;;;;;;;-1.22;83.60;100665.95;124678;1099;104188;-76
2023/11/30 07:27:36;;;;;;;;;;;;;;;-1.17;83.08;100671.50;124660;1099;104245;-77
2023/11/30 07:30:16;;;;;;;105.97;43.80;;;;;;;-1.15;83.59;100668.30;124549;1099;102963;-77
2023/11/30 07:32:53;;;;;;;93.13;42.30;;;;;;;-1.15;83.20;100673.45;126210;1099;102818;-78
2023/11/30 07:35:23;;;;;;;;;;;;;;;-1.10;82.64;100687.60;126277;1098;102730;-78
2023/11/30 07:37:55;;;;;;;119.30;51.43;;;;;;;-1.03;82.79;100681.29;126235;1099;101856;-77
2023/11/30 07:40:26;;;;;;;113.90;50.40;;;;;;;-0.90;83.39;100683.25;126334;1099;101718;-79
2023/11/30 07:42:58;;;;;;;126.93;54.27;;;;;;;-0.74;83.00;100681.16;126688;1099;101469;-79
2023/11/30 07:45:30;;;;;;;119.57;51.67;;;;;;;-0.54;83.60;100681.94;126733;1099;102343;-77
2023/11/30 07:48:03;;;;;;;88.13;40.67;;;;;;;-0.41;83.19;100689.88;126522;1098;103170;-81
2023/11/30 07:50:41;;;;;;;91.93;42.20;;;;;;;-0.29;84.11;100671.06;124688;1099;104412;-78
2023/11/30 07:53:18;;;;;;;81.63;37.40;;;;;;;-0.10;83.54;100669.18;124851;1099;104239;-78
2023/11/30 07:55:54;;;;;;;74.90;36.50;;;;;;;0.08;83.57;100669.77;124714;1099;102832;-79
2023/11/30 07:58:40;;;;;;;79.03;38.23;;;;;;;0.29;83.94;100665.40;124439;1099;103892;-77
2023/11/30 08:01:16;;;;;;;73.90;36.93;;;;;;;0.47;84.07;100665.07;124538;1100;104150;-77
2023/11/30 08:03:50;;;;;;;73.03;36.43;;;;;;;0.60;83.82;100667.81;124851;1099;104246;-75
2023/11/30 08:06:29;;;;;;;73.07;34.97;;;;;;;0.73;83.87;100667.08;124964;1099;104240;-78
2023/11/30 08:09:00;;;;;;;70.53;32.93;;;;;;;0.85;83.80;100667.13;124892;1099;102939;-78
2023/11/30 08:11:34;;;;;;;71.63;35.50;;;;;;;0.97;83.73;100664.60;124567;1099;104271;-78
2023/11/30 08:14:14;;;;;;;53.97;26.80;;;;;;;0.98;84.17;100664.72;124971;1102;103605;-80
2023/11/30 08:16:46;;;;;;;39.40;18.07;;;;;;;1.00;83.85;100668.31;125144;1102;104296;-79
2023/11/30 08:19:18;;;;;;;33.03;15.30;;;;;;;1.07;83.85;100664.50;124273;1099;104174;-77
2023/11/30 08:21:50;;;;;;;53.57;26.40;;;;;;;1.22;84.17;100667.36;124204;1099;104252;-79
2023/11/30 08:24:25;;;;;;;49.67;24.77;;;;;;;1.41;84.02;100661.88;124131;1099;104233;-75
2023/11/30 08:26:57;;;;;;;48.33;23.50;;;;;;;1.56;83.64;100649.20;124039;1099;104159;-76
2023/11/30 08:29:30;;;;;;;38.23;18.83;;;;;;;1.65;84.22;100661.89;124414;1099;104095;-76
2023/11/30 08:32:02;;;;;;;41.43;18.83;;;;;;;1.75;83.77;100659.21;124766;1099;104274;-79
2023/11/30 08:34:36;;;;;;;48.77;22.70;;;;;;;1.89;83.79;100662.81;124359;1102;104162;-78
2023/11/30 08:37:14;;;;;;;39.27;17.00;;;;;;;1.97;83.65;100667.73;124677;1099;104178;-79
2023/11/30 08:39:51;;;;;;;34.07;14.67;;;;;;;1.94;83.57;100664.92;124672;1099;104248;-75
2023/11/30 08:42:30;;;;;;;32.10;14.67;;;;;;;1.90;83.63;100667.17;124491;1099;104166;-75
2023/11/30 08:45:05;;;;;;;30.70;13.23;;;;;;;1.86;83.42;100660.89;124555;1099;104242;-77
2023/11/30 08:47:38;;;;;;;24.23;9.53;;;;;;;1.76;83.17;100651.56;126243;1099;102270;-79
2023/11/30 08:50:14;;;;;;;23.57;8.80;;;;;;;1.74;83.21;100650.53;125225;1099;104674;-78
2023/11/30 08:52:47;;;;;;;22.90;8.70;;;;;;;1.62;82.65;100647.04;124854;1099;104165;-77
2023/11/30 08:55:25;;;;;;;22.07;8.77;;;;;;;1.59;83.21;100644.22;124707;1099;102891;-77
2023/11/30 08:57:59;;;;;;;20.73;8.20;;;;;;;1.62;82.83;100652.21;124754;1099;102862;-78
2023/11/30 09:00:39;;;;;;;22.73;8.77;;;;;;;1.60;82.79;100646.03;125426;1099;102125;-78
2023/11/30 09:03:14;;;;;;;19.23;7.77;;;;;;;1.58;82.68;100643.34;124902;1102;102717;-79
2023/11/30 09:05:48;;;;;;;23.10;9.07;;;;;;;1.67;82.54;100639.62;124550;1099;107049;-79
2023/11/30 09:08:22;;;;;;;21.57;8.73;;;;;;;1.78;82.68;100631.86;124504;1102;104326;-78
2023/11/30 09:10:58;;;;;;;22.03;9.17;;;;;;;1.93;82.50;100625.99;124692;1099;104248;-77
2023/11/30 09:13:31;;;;;;;22.43;9.07;;;;;;;2.11;82.92;100626.42;124469;1098;104213;-80
2023/11/30 09:16:05;;;;;;;19.70;8.63;;;;;;;2.11;79.60;100626.42;124665;1099;117837;-82
2023/11/30 09:18:39;;;;;;;20.93;8.40;;;;;;;2.11;81.70;100629.91;124185;1102;104248;-77
2023/11/30 09:21:12;;;;;;;22.93;9.17;;;;;;;2.21;80.92;100634.04;124321;1099;104236;-77
2023/11/30 09:23:45;;;;;;;19.77;8.13;;;;;;;2.27;81.94;100626.70;124277;1099;104280;-76
2023/11/30 09:26:20;;;;;;;21.37;8.63;;;;;;;2.30;82.05;100620.86;124418;1102;104350;-76
2023/11/30 09:28:52;;;;;;;21.60;8.73;;;;;;;2.39;81.74;100615.44;124343;1099;104354;-77
2023/11/30 09:31:24;;;;;;;20.93;9.03;;;;;;;2.50;81.52;100605.02;124347;1099;104179;-75
2023/11/30 09:33:59;;;;;;;20.93;8.57;;;;;;;2.53;81.15;100606.05;124275;1099;104316;-75
2023/11/30 09:36:31;;;;;;;21.57;9.00;;;;;;;2.54;81.71;100594.87;124442;1099;110803;-77
2023/11/30 09:39:04;;;;;;;20.27;8.23;;;;;;;2.58;81.32;100587.41;124635;1102;104162;-78
2023/11/30 09:41:51;;;;;;;22.00;8.27;;;;;;;2.64;81.74;100587.84;124317;1102;104217;-75
2023/11/30 09:44:25;;;;;;;21.20;8.60;;;;;;;2.68;80.67;100594.12;124299;1099;104197;-75
2023/11/30 09:47:04;;;;;;;21.45;8.70;;;;;;;2.66;81.45;100600.90;124415;1099;104245;-77
2023/11/30 09:49:37;;;;;;;22.43;7.90;;;;;;;2.68;80.86;100595.04;124834;1099;104268;-78
2023/11/30 09:52:12;;;;;;;19.17;7.90;;;;;;;2.72;81.13;100601.32;124548;1099;104245;-79
2023/11/30 09:54:52;;;;;;;20.10;8.13;;;;;;;2.77;80.55;100599.05;124817;1099;104217;-77
2023/11/30 09:57:44;;;;;;;21.93;8.90;;;;;;;2.86;81.47;100602.27;124294;1098;104246;-77
2023/11/30 10:00:24;;;;;;;20.97;7.73;;;;;;;2.88;80.38;100598.07;124454;1099;104223;-76
2023/11/30 10:06:15;;;;;;;16.80;6.53;;;;;;;2.68;79.37;100613.17;124335;1099;103004;-77
2023/11/30 10:08:57;;;;;;;19.47;7.13;;;;;;;2.66;79.17;100614.73;124602;1099;104172;-76
2023/11/30 10:11:38;;;;;;;19.07;7.33;;;;;;;2.64;78.95;100612.86;124278;1099;104226;-77
2023/11/30 10:14:10;;;;;;;19.07;6.70;;;;;;;2.64;79.88;100624.11;125848;1099;102685;-77
2023/11/30 10:17:12;;;;;;;17.67;7.37;;;;;;;2.63;79.41;100605.87;124859;1099;104182;-80
2023/11/30 10:19:52;;;;;;;18.77;6.57;;;;;;;2.69;79.95;100595.92;125749;1099;104168;-78
2023/11/30 10:22:25;;;;;;;17.20;6.40;;;;;;;2.69;78.39;100594.22;125474;1099;104226;-79
2023/11/30 10:24:58;;;;;;;14.50;5.67;;;;;;;2.64;76.99;100576.58;125778;1099;102699;-77
2023/11/30 10:27:35;;;;;;;16.77;6.37;;;;;;;2.62;77.24;100568.70;126656;1098;102910;-79
2023/11/30 10:30:12;;;;;;;16.73;6.13;;;;;;;2.65;77.93;100570.59;126145;1099;104255;-80
2023/11/30 10:32:50;;;;;;;14.03;5.47;;;;;;;2.57;76.50;100544.19;124790;1099;104227;-77
2023/11/30 10:35:28;;;;;;;14.40;5.63;;;;;;;2.67;77.54;100553.48;124803;1099;104198;-77
2023/11/30 10:38:00;;;;;;;14.63;6.00;;;;;;;2.65;77.59;100542.09;124855;1099;104194;-77
2023/11/30 10:40:32;;;;;;;15.90;6.13;;;;;;;2.68;78.04;100542.30;125021;1099;104271;-76
2023/11/30 10:43:10;;;;;;;14.97;5.37;;;;;;;2.69;77.39;100549.28;125141;1099;104242;-76
2023/11/30 10:45:45;;;;;;;14.37;5.90;;;;;;;2.68;76.26;100547.48;126568;1099;102467;-77
2023/11/30 10:48:18;;;;;;;15.33;6.30;;;;;;;2.69;77.08;100551.88;126181;1100;103464;-79
2023/11/30 10:50:54;;;;;;;18.93;6.40;;;;;;;2.73;77.37;100543.53;126168;1099;102198;-79
2023/11/30 10:53:42;;;;;;;17.40;6.40;;;;;;;2.76;77.25;100542.81;126513;1099;102728;-76
2023/11/30 10:56:17;;;;;;;14.03;5.60;;;;;;;2.73;76.56;100532.24;126038;1102;102524;-76
2023/11/30 10:58:52;;;;;;;15.27;6.30;;;;;;;2.68;76.27;100521.56;126615;1099;102942;-78
2023/11/30 11:01:24;;;;;;;16.20;6.23;;;;;;;2.59;74.50;100508.02;126496;1099;102658;-76
2023/11/30 11:03:57;;;;;;;15.97;6.20;;;;;;;2.47;75.38;100508.08;126088;1099;102890;-77
2023/11/30 11:06:34;;;;;;;17.77;6.80;;;;;;;2.39;76.10;100510.14;126504;1099;102674;-75
2023/11/30 11:09:11;;;;;;;18.27;6.77;;;;;;;2.37;74.49;100508.23;126031;1099;102786;-77
2023/11/30 11:12:04;;;;;;;16.30;7.17;;;;;;;2.36;75.59;100517.70;126045;1099;102676;-77
2023/11/30 11:18:46;;;;;;;15.27;6.07;;;;;;;2.39;75.19;100509.25;125933;1099;106976;-76
2023/11/30 11:21:34;;;;;;;16.63;6.80;;;;;;;2.49;75.64;100509.06;126037;1102;102757;-76
2023/11/30 11:24:08;;;;;;;16.67;6.90;;;;;;;2.62;75.40;100511.70;126096;1100;101764;-79
2023/11/30 11:26:48;;;;;;;18.93;7.00;;;;;;;2.70;75.74;100507.05;126164;1099;102176;-77
2023/11/30 11:29:31;;;;;;;18.70;7.40;;;;;;;2.80;75.29;100512.03;125953;1099;103761;-77
2023/11/30 11:32:23;;;;;;;18.23;7.40;;;;;;;2.87;75.09;100509.06;126073;1099;101742;-76
2023/11/30 11:34:59;;;;;;;19.57;7.83;;;;;;;2.91;74.58;100511.86;126044;1100;102604;-78